Atkins, VA (24311)

1:56 AM EDT on July 31, 2016 (GMT -0400)
sugar grove | | Change Station

Elev 2995 ft 36.81 °N, 81.40 °W | Updated 4 minutes ago

Clear
Clear
61.0 °F
Feels Like 61.0 °F
N
0.0
Wind Variable Wind from NNE

Today
High -- | Low -- °F
--% Chance of Precip.
Yesterday
High -- | Low -- °F
Precip. -- in
Pressure 30.13 in
Visibility 4.0 miles
Clouds Clear
Dew Point 61 °F
Humidity 99%
Rainfall 0.00 in
Snow Depth Not available.
6:30 AM 8:32 PM
Waning Crescent, 8% visible
METAR KMKJ 310535Z AUTO 00000KT 4SM VCTS BR CLR 20/19 A3013 RMK AO2 LTG DSNT W T01950188
Pressure 30.13 in
Visibility 4.0 miles
Clouds Clear
Dew Point 61 °F
Humidity 99%
Rainfall 0.00 in
Snow Depth Not available.
6:30 AM 8:32 PM
Waning Crescent, 8% visible
METAR KMKJ 310535Z AUTO 00000KT 4SM VCTS BR CLR 20/19 A3013 RMK AO2 LTG DSNT W T01950188

10-Day Weather Forecast

Almanac

Astronomy

Jul. 31, 2016 Rise Set
Actual Time
Civil Twilight
Nautical Twilight
Astronomical Twilight
Moon
Length of Visible Light
Length of Day
Tomorrow will be .
, % of the Moon is Illuminated

Today's Extremes

State Highs State Lows

Community

WunderPhotos

Upload Photos

1,928,766 photos uploaded!

WunderBlog® & News

Nearby

Air Quality

  Air Quality AQ Index Pollutant
Not available.

Snow Depth

Station Depth Elevation

Earthquake Activity

City Distance Mag. Time & Date
Minimum magnitude displayed is 2.5.

Coastal Water Temperatures

Place Temperature

Stations

Nearby Weather Stations

Station Location Temp. Windchill Dew Point Humidity Wind Precip. Elev Updated Type
                   

Watches & Warnings

There are currently no watches in effect.